Ackley, IA

3:14 AM CDT on August 31, 2016 (GMT -0500)
Jensen Farm | | Change Station

Elev 1129 ft 42.50 °N, 93.20 °W | Updated 48 seconds ago

Clear
Clear
59.8 °F
Feels Like 59.8 °F
N
4.0
Wind Variable Wind from NNW
Gusts 5.0 mph

Today
High -- | Low -- °F
--% Chance of Precip.
Yesterday
High -- | Low -- °F
Precip. -- in
Pressure 30.18 in
Visibility 10.0 miles
Clouds Clear
Dew Point Not available.
Humidity Not available.
Rainfall 0.00 in
Snow Depth Not available.
6:36 AM 7:47 PM
Waning Crescent, 1% visible
METAR KIFA 310815Z AUTO 36004KT 10SM CLR 16/15 A3018 RMK AO2 T01570145
Pressure 30.18 in
Visibility 10.0 miles
Clouds Clear
Dew Point Not available.
Humidity Not available.
Rainfall 0.00 in
Snow Depth Not available.
6:36 AM 7:47 PM
Waning Crescent, 1% visible
METAR KIFA 310815Z AUTO 36004KT 10SM CLR 16/15 A3018 RMK AO2 T01570145

10-Day Weather Forecast

Almanac

Astronomy

Aug. 31, 2016 Rise Set
Actual Time
Civil Twilight
Nautical Twilight
Astronomical Twilight
Moon
Length of Visible Light
Length of Day
Tomorrow will be .
, % of the Moon is Illuminated

Today's Extremes

State Highs State Lows

Community

WunderPhotos

Upload Photos

1,936,038 photos uploaded!

WunderBlog® & News

Nearby

Air Quality

  Air Quality AQ Index Pollutant
Not available.

Snow Depth

Station Depth Elevation

Earthquake Activity

City Distance Mag. Time & Date
Minimum magnitude displayed is 2.5.

Coastal Water Temperatures

Place Temperature

Stations

Nearby Weather Stations

Station Location Temp. Windchill Dew Point Humidity Wind Precip. Elev Updated Type
                   

Watches & Warnings

There are currently no watches in effect.